Time;durP1;ratioP1;P1;durP2;ratioP2;P2;SDS_P1;SDS_P2;PMS_P1;PMS_P2;Temp;Humidity;BMP_temperature;BMP_pressure;BME280_temperature;BME280_humidity;BME280_pressure;Samples;Min_cycle;Max_cycle;Signal;HPM_P1;HPM_P2
2023/02/02 00:00:01;;;;;;;13.10;2.70;;;;;;;3.16;82.86;99523.50;130138;1252;114808;-62
2023/02/02 00:03:03;;;;;;;14.50;3.70;;;;;;;3.17;82.72;99523.14;130291;1254;115137;-61
2023/02/02 00:06:06;;;;;;;17.40;3.40;;;;;;;3.17;82.73;99517.30;130065;1256;114802;-60
2023/02/02 00:09:09;;;;;;;13.90;3.90;;;;;;;3.17;82.61;99515.17;130292;1257;115157;-59
2023/02/02 00:12:11;;;;;;;15.10;3.20;;;;;;;3.16;82.60;99520.15;130155;1257;115202;-61
2023/02/02 00:15:14;;;;;;;16.70;3.20;;;;;;;3.15;82.53;99515.42;130317;1254;115153;-59
2023/02/02 00:18:16;;;;;;;18.30;3.50;;;;;;;3.16;82.67;99516.29;130339;1256;114773;-59
2023/02/02 00:21:19;;;;;;;13.50;3.10;;;;;;;3.17;82.65;99511.33;130276;1257;114788;-60
2023/02/02 00:24:22;;;;;;;13.80;2.90;;;;;;;3.16;82.54;99513.62;130283;1255;115144;-61
2023/02/02 00:27:24;;;;;;;15.80;3.60;;;;;;;3.16;82.51;99519.27;130181;1257;114708;-61
2023/02/02 00:30:26;;;;;;;14.50;3.70;;;;;;;3.14;82.58;99522.86;130309;1257;114785;-65
2023/02/02 00:33:29;;;;;;;14.00;3.40;;;;;;;3.13;82.36;99529.79;130195;1254;114740;-67
2023/02/02 00:36:32;;;;;;;12.90;3.20;;;;;;;3.13;82.37;99529.96;130039;1270;115221;-60
2023/02/02 00:39:34;;;;;;;15.40;3.50;;;;;;;3.13;82.37;99526.45;130357;1256;114635;-60
2023/02/02 00:42:36;;;;;;;13.90;3.10;;;;;;;3.13;82.49;99537.38;130433;1255;115122;-63
2023/02/02 00:45:39;;;;;;;18.60;3.50;;;;;;;3.14;82.54;99539.63;130392;1265;114706;-61
2023/02/02 00:48:43;;;;;;;9.90;3.80;;;;;;;3.15;82.44;99539.61;129981;1253;114911;-64
2023/02/02 00:51:45;;;;;;;19.90;3.60;;;;;;;3.16;82.49;99533.20;129784;1275;127867;-62
2023/02/02 00:54:48;;;;;;;14.90;2.90;;;;;;;3.18;82.47;99529.45;130559;1257;114703;-65
2023/02/02 00:57:51;;;;;;;11.00;3.50;;;;;;;3.19;82.36;99536.83;130627;1257;115216;-62
2023/02/02 01:00:53;;;;;;;9.60;3.20;;;;;;;3.19;82.41;99533.13;130266;1254;114778;-60
2023/02/02 01:03:55;;;;;;;22.60;4.00;;;;;;;3.21;82.22;99532.20;130159;1256;114707;-63
2023/02/02 01:06:57;;;;;;;18.90;3.70;;;;;;;3.21;82.47;99530.06;130203;1254;115384;-65
2023/02/02 01:10:00;;;;;;;18.50;3.80;;;;;;;3.22;82.08;99534.27;130317;1256;114785;-61
2023/02/02 01:13:03;;;;;;;15.40;3.30;;;;;;;3.23;82.08;99531.06;130317;1254;115382;-60
2023/02/02 01:16:06;;;;;;;14.20;3.20;;;;;;;3.24;82.05;99533.14;130381;1275;115157;-60
2023/02/02 01:19:08;;;;;;;22.70;3.60;;;;;;;3.26;82.14;99536.08;130202;1256;115067;-60
2023/02/02 01:22:10;;;;;;;17.50;3.10;;;;;;;3.27;82.06;99537.46;130066;1257;114801;-60
2023/02/02 01:25:13;;;;;;;9.60;2.50;;;;;;;3.27;82.09;99540.46;130474;1257;115345;-60
2023/02/02 01:28:15;;;;;;;14.90;3.00;;;;;;;3.28;81.89;99538.69;130269;1254;114725;-60
2023/02/02 01:31:19;;;;;;;13.30;2.80;;;;;;;3.28;81.85;99537.42;130018;1254;114859;-60
2023/02/02 01:34:22;;;;;;;12.80;2.60;;;;;;;3.29;81.88;99539.88;130288;1256;114697;-66
2023/02/02 01:37:24;;;;;;;7.50;2.60;;;;;;;3.30;81.65;99537.20;130298;1255;115121;-60
2023/02/02 01:40:27;;;;;;;17.00;2.80;;;;;;;3.30;81.50;99539.13;130276;1256;114795;-60
2023/02/02 01:43:29;;;;;;;12.10;3.00;;;;;;;3.32;81.75;99536.61;130300;1256;115233;-59
2023/02/02 01:46:35;;;;;;;18.10;3.20;;;;;;;3.33;81.60;99535.50;130270;1261;114750;-59
2023/02/02 01:49:39;;;;;;;12.20;2.50;;;;;;;3.34;81.60;99530.52;129931;1272;127062;-60
2023/02/02 01:52:46;;;;;;;12.90;3.20;;;;;;;3.35;81.56;99527.67;129987;1257;115180;-63
2023/02/02 01:55:48;;;;;;;17.20;3.10;;;;;;;3.35;81.42;99525.91;129801;1258;114801;-59
2023/02/02 01:58:51;;;;;;;14.10;2.90;;;;;;;3.35;81.31;99525.71;130256;1255;114695;-60
2023/02/02 02:01:54;;;;;;;14.40;3.70;;;;;;;3.37;81.26;99527.99;130264;1257;114806;-63
2023/02/02 02:04:58;;;;;;;15.70;2.70;;;;;;;3.37;81.30;99523.58;130275;1269;114781;-61
2023/02/02 02:08:26;;;;;;;14.30;3.00;;;;;;;3.37;81.43;99518.09;130239;1257;114772;-61
2023/02/02 02:11:29;;;;;;;12.60;2.90;;;;;;;3.38;81.07;99522.14;130234;1254;114903;-60
2023/02/02 02:18:00;;;;;;;17.90;4.00;;;;;;;3.39;81.04;99512.23;130196;1257;114699;-63
2023/02/02 02:28:48;;;;;;;11.20;2.80;;;;;;;3.39;80.91;99497.88;130037;1254;114849;-67
2023/02/02 02:31:59;;;;;;;14.40;3.70;;;;;;;3.39;80.64;99499.84;130258;1264;114689;-68
2023/02/02 02:35:33;;;;;;;9.30;2.70;;;;;;;3.38;80.50;99498.09;130184;1275;114776;-62
2023/02/02 02:38:38;;;;;;;15.30;3.10;;;;;;;3.40;80.62;99499.12;130175;1265;127355;-61
2023/02/02 02:41:42;;;;;;;;;;;;;;;3.40;80.63;99496.46;129948;1261;114853;-66
2023/02/02 02:44:44;;;;;;;16.60;4.30;;;;;;;3.40;80.61;99493.63;130034;1275;115056;-61
2023/02/02 02:47:47;;;;;;;11.60;3.10;;;;;;;3.40;80.42;99493.10;130056;1257;114721;-61
2023/02/02 02:50:49;;;;;;;11.00;2.80;;;;;;;3.40;80.36;99492.73;130217;1274;114778;-60
2023/02/02 02:53:52;;;;;;;13.80;2.60;;;;;;;3.42;80.45;99488.98;130157;1255;114784;-60
2023/02/02 02:57:06;;;;;;;12.90;2.70;;;;;;;3.44;80.40;99487.86;130593;1251;115510;-60
2023/02/02 03:00:18;;;;;;;15.50;3.00;;;;;;;3.45;80.39;99483.92;130154;1256;115163;-61
2023/02/02 03:03:30;;;;;;;14.20;2.40;;;;;;;3.47;80.40;99486.70;129873;1271;115157;-61
2023/02/02 03:06:56;;;;;;;15.20;2.90;;;;;;;3.49;80.29;99488.91;129872;1261;114863;-61
2023/02/02 03:10:00;;;;;;;11.30;2.20;;;;;;;3.51;80.21;99484.10;130062;1258;114765;-61
2023/02/02 03:13:06;;;;;;;11.30;2.90;;;;;;;3.52;80.06;99479.81;130118;1275;127910;-58
2023/02/02 03:16:09;;;;;;;10.60;3.40;;;;;;;3.54;80.08;99475.16;130195;1275;115304;-61
2023/02/02 03:19:12;;;;;;;15.60;2.90;;;;;;;3.56;80.01;99471.89;130169;1256;114843;-62
2023/02/02 03:22:14;;;;;;;14.80;3.60;;;;;;;3.58;79.82;99455.79;130176;1255;114731;-60
2023/02/02 03:25:17;;;;;;;15.50;2.60;;;;;;;3.58;79.70;99449.25;130132;1257;114725;-60
2023/02/02 03:28:20;;;;;;;21.20;3.50;;;;;;;3.60;79.63;99440.89;130207;1257;115396;-60
2023/02/02 03:31:25;;;;;;;13.80;3.00;;;;;;;3.60;79.59;99433.29;130001;1257;127631;-59
2023/02/02 03:34:28;;;;;;;17.20;3.10;;;;;;;3.60;79.48;99430.63;130153;1257;115228;-60
2023/02/02 03:37:30;;;;;;;10.80;3.20;;;;;;;3.60;79.33;99422.85;130085;1254;114718;-62
2023/02/02 03:40:35;;;;;;;13.20;3.00;;;;;;;3.60;79.33;99422.69;129959;1254;115095;-60
2023/02/02 03:43:38;;;;;;;14.50;3.10;;;;;;;3.59;79.21;99418.47;130203;1257;115912;-59
2023/02/02 03:46:40;;;;;;;14.50;3.20;;;;;;;3.59;79.08;99415.14;130270;1264;115273;-59
2023/02/02 03:49:43;;;;;;;13.90;3.20;;;;;;;3.59;78.99;99413.91;130504;1265;114739;-60
2023/02/02 03:52:45;;;;;;;16.30;2.90;;;;;;;3.56;78.65;99405.71;130198;1256;115163;-59
2023/02/02 03:55:48;;;;;;;14.40;3.00;;;;;;;3.55;78.77;99411.75;130167;1257;114841;-59
2023/02/02 03:58:50;;;;;;;12.20;2.90;;;;;;;3.54;78.61;99410.73;130228;1257;114796;-60
2023/02/02 04:01:53;;;;;;;13.20;3.60;;;;;;;3.55;78.59;99413.16;130142;1256;114721;-59
2023/02/02 04:04:55;;;;;;;10.00;2.40;;;;;;;3.56;78.55;99406.42;130223;1255;115757;-62
2023/02/02 04:07:57;;;;;;;16.90;2.90;;;;;;;3.57;78.51;99407.95;130063;1275;128817;-60
2023/02/02 04:11:00;;;;;;;21.00;2.90;;;;;;;3.59;78.58;99403.46;130100;1256;115192;-59
2023/02/02 04:14:02;;;;;;;10.30;2.80;;;;;;;3.60;78.45;99408.20;130182;1264;115254;-59
2023/02/02 04:17:05;;;;;;;13.50;2.40;;;;;;;3.62;78.44;99409.04;130134;1260;114796;-60
2023/02/02 04:20:09;;;;;;;16.40;4.10;;;;;;;3.64;78.41;99406.11;130207;1264;114782;-61
2023/02/02 04:23:11;;;;;;;12.30;3.50;;;;;;;3.66;78.38;99400.58;129948;1275;115107;-67
2023/02/02 04:26:14;;;;;;;15.70;2.80;;;;;;;3.67;78.23;99401.95;130173;1266;114702;-60
2023/02/02 04:29:16;;;;;;;16.30;2.70;;;;;;;3.69;78.39;99396.77;130196;1258;114830;-59
2023/02/02 04:32:18;;;;;;;11.80;2.60;;;;;;;3.71;78.08;99401.48;130248;1275;114807;-60
2023/02/02 04:35:21;;;;;;;13.50;2.80;;;;;;;3.72;78.30;99401.95;130228;1264;114619;-60
2023/02/02 04:38:23;;;;;;;9.40;2.00;;;;;;;3.73;78.02;99404.02;130171;1257;114827;-60
2023/02/02 04:41:25;;;;;;;10.80;2.80;;;;;;;3.75;78.05;99405.39;130122;1254;114709;-60
2023/02/02 04:44:27;;;;;;;11.50;2.40;;;;;;;3.76;78.14;99410.45;130209;1275;114667;-59
2023/02/02 04:47:30;;;;;;;14.20;3.00;;;;;;;3.79;78.01;99409.85;129813;1258;128417;-60
2023/02/02 04:50:32;;;;;;;12.40;2.50;;;;;;;3.81;77.85;99405.17;129897;1257;114857;-60
2023/02/02 04:53:34;;;;;;;12.30;2.80;;;;;;;3.82;77.75;99401.95;130372;1256;114693;-60
2023/02/02 04:56:37;;;;;;;16.60;3.20;;;;;;;3.83;77.79;99396.79;130345;1255;114703;-60
2023/02/02 04:59:39;;;;;;;15.60;2.60;;;;;;;3.84;77.84;99396.93;130295;1256;114717;-59
2023/02/02 05:02:42;;;;;;;14.00;2.40;;;;;;;3.85;77.73;99390.37;130079;1265;114874;-60
2023/02/02 05:05:45;;;;;;;12.50;2.40;;;;;;;3.86;77.64;99395.98;130192;1257;114792;-61
2023/02/02 05:08:47;;;;;;;12.40;2.10;;;;;;;3.87;77.37;99400.37;130178;1275;129061;-60
2023/02/02 05:11:49;;;;;;;15.20;2.50;;;;;;;3.88;77.46;99395.39;130192;1264;115141;-70
2023/02/02 05:14:52;;;;;;;12.10;2.40;;;;;;;3.90;77.37;99400.62;130353;1275;114728;-60
2023/02/02 05:17:55;;;;;;;11.20;2.20;;;;;;;3.91;77.50;99400.59;130247;1265;114788;-60
2023/02/02 05:21:02;;;;;;;17.70;3.00;;;;;;;3.93;77.29;99401.92;129973;1275;115016;-60
2023/02/02 05:24:04;;;;;;;11.20;2.90;;;;;;;3.95;77.35;99403.61;130040;1260;114892;-60
2023/02/02 05:27:07;;;;;;;14.00;3.10;;;;;;;3.97;77.27;99403.89;130236;1257;114696;-60
2023/02/02 05:30:11;;;;;;;12.00;3.40;;;;;;;3.99;77.36;99406.11;130185;1264;114798;-61
2023/02/02 05:33:14;;;;;;;16.40;3.00;;;;;;;4.01;77.32;99398.09;130387;1255;115271;-60
2023/02/02 05:36:16;;;;;;;18.70;3.00;;;;;;;4.02;77.15;99398.92;130297;1256;114691;-60
2023/02/02 05:39:18;;;;;;;15.30;2.90;;;;;;;4.03;77.27;99403.66;130160;1257;114682;-60
2023/02/02 05:42:21;;;;;;;16.80;4.40;;;;;;;4.05;77.26;99406.40;130396;1265;114743;-60
2023/02/02 05:45:23;;;;;;;15.00;2.80;;;;;;;4.08;77.41;99407.71;129832;1275;128541;-60
2023/02/02 05:48:26;;;;;;;11.10;2.60;;;;;;;4.09;77.50;99417.58;130293;1257;114693;-59
2023/02/02 05:51:31;;;;;;;9.30;2.40;;;;;;;4.10;77.60;99419.48;130292;1256;115140;-59
2023/02/02 05:54:33;;;;;;;;;;;;;;;4.09;77.77;99421.11;130123;1264;114786;-60
2023/02/02 05:57:36;;;;;;;11.80;2.80;;;;;;;4.07;77.60;99422.96;130336;1264;114760;-64
2023/02/02 06:00:38;;;;;;;20.80;2.90;;;;;;;4.05;77.76;99422.52;130225;1257;115163;-60
2023/02/02 06:03:40;;;;;;;10.60;2.80;;;;;;;4.05;77.68;99428.34;130300;1257;115002;-62
2023/02/02 06:06:43;;;;;;;11.80;2.50;;;;;;;4.05;77.85;99432.94;130238;1275;115113;-59
2023/02/02 06:09:45;;;;;;;6.50;1.70;;;;;;;4.04;77.84;99436.85;130274;1263;114692;-59
2023/02/02 06:12:48;;;;;;;14.90;2.60;;;;;;;4.02;77.93;99443.98;129971;1264;115292;-59
2023/02/02 06:15:51;;;;;;;10.10;2.00;;;;;;;4.00;78.33;99444.58;130183;1264;114805;-59
2023/02/02 06:18:53;;;;;;;8.40;2.60;;;;;;;4.00;78.40;99451.85;130479;1264;114674;-60
2023/02/02 06:21:56;;;;;;;16.60;2.70;;;;;;;3.99;78.38;99452.73;130313;1275;128383;-59
2023/02/02 06:24:59;;;;;;;10.00;2.30;;;;;;;3.98;78.62;99453.50;130388;1257;115137;-60
2023/02/02 06:28:02;;;;;;;8.50;2.20;;;;;;;3.96;78.40;99462.05;130134;1257;115118;-60
2023/02/02 06:31:06;;;;;;;12.40;2.20;;;;;;;3.94;78.43;99461.05;130331;1261;114830;-60
2023/02/02 06:34:13;;;;;;;10.30;2.80;;;;;;;3.93;78.47;99460.90;130304;1260;114862;-60
2023/02/02 06:37:15;;;;;;;10.00;2.30;;;;;;;3.91;78.57;99457.08;129914;1275;128826;-60
2023/02/02 06:40:18;;;;;;;8.20;2.10;;;;;;;3.89;78.36;99463.70;130159;1275;114756;-59
2023/02/02 06:43:20;;;;;;;10.30;2.20;;;;;;;3.87;78.57;99471.89;130216;1251;114712;-60
2023/02/02 06:46:23;;;;;;;10.40;2.60;;;;;;;3.86;78.49;99477.05;130262;1251;114802;-62
2023/02/02 06:49:25;;;;;;;11.90;2.20;;;;;;;3.86;78.57;99484.14;130356;1256;114800;-60
2023/02/02 06:52:28;;;;;;;12.10;2.50;;;;;;;3.85;78.59;99483.64;130372;1267;114637;-64
2023/02/02 06:55:31;;;;;;;7.90;2.20;;;;;;;3.85;78.78;99492.98;130199;1257;114777;-60
2023/02/02 06:58:33;;;;;;;5.40;1.70;;;;;;;3.84;78.66;99490.02;130268;1251;115373;-59
2023/02/02 07:01:36;;;;;;;11.10;1.90;;;;;;;3.85;78.63;99494.77;130083;1254;115146;-61
2023/02/02 07:04:39;;;;;;;5.60;2.10;;;;;;;3.86;78.67;99505.86;130307;1257;114695;-70
2023/02/02 07:07:41;;;;;;;7.70;2.60;;;;;;;3.86;78.46;99503.02;130299;1255;115125;-59
2023/02/02 07:10:44;;;;;;;8.40;2.20;;;;;;;3.87;78.69;99512.20;130225;1257;115321;-61
2023/02/02 07:13:48;;;;;;;7.70;2.20;;;;;;;3.87;78.73;99515.02;130263;1257;114985;-59
2023/02/02 07:16:50;;;;;;;9.10;2.60;;;;;;;3.87;78.64;99517.13;130224;1265;128843;-59
2023/02/02 07:19:52;;;;;;;10.40;2.10;;;;;;;3.89;78.71;99529.05;130255;1275;114686;-59
2023/02/02 07:22:55;;;;;;;8.10;2.60;;;;;;;3.91;78.60;99536.41;130172;1259;114728;-59
2023/02/02 07:26:03;;;;;;;7.80;2.70;;;;;;;3.92;78.75;99540.63;130287;1254;114778;-60
2023/02/02 07:29:05;;;;;;;9.10;1.80;;;;;;;3.92;78.59;99541.48;130142;1259;114685;-66
2023/02/02 07:32:08;;;;;;;5.90;1.90;;;;;;;3.94;78.63;99541.96;130145;1275;114787;-60
2023/02/02 07:35:10;;;;;;;8.00;1.90;;;;;;;3.94;78.55;99547.42;130125;1259;114764;-64
2023/02/02 07:38:13;;;;;;;3.80;1.70;;;;;;;3.94;78.42;99551.32;130290;1255;114769;-60
2023/02/02 07:41:16;;;;;;;7.00;1.70;;;;;;;3.96;78.45;99556.23;130217;1260;114708;-62
2023/02/02 07:44:19;;;;;;;4.90;1.90;;;;;;;3.98;78.54;99562.34;129958;1257;114836;-60
2023/02/02 07:47:21;;;;;;;5.70;1.80;;;;;;;4.00;78.66;99566.48;130294;1257;114692;-62
2023/02/02 07:50:24;;;;;;;4.40;2.00;;;;;;;4.02;78.58;99570.50;130340;1273;115026;-59
2023/02/02 07:53:27;;;;;;;7.70;2.60;;;;;;;4.03;78.67;99574.36;130329;1258;114692;-60
2023/02/02 07:56:29;;;;;;;6.60;1.70;;;;;;;4.03;78.84;99578.05;130291;1264;114760;-60
2023/02/02 07:59:32;;;;;;;5.30;1.50;;;;;;;4.04;78.58;99584.20;130280;1274;114747;-60
2023/02/02 08:02:34;;;;;;;9.30;1.70;;;;;;;4.07;78.96;99583.02;130212;1265;115476;-60
2023/02/02 08:05:37;;;;;;;7.30;2.00;;;;;;;4.12;78.64;99587.10;130164;1261;114971;-60
2023/02/02 08:08:40;;;;;;;7.90;2.30;;;;;;;4.18;78.83;99599.63;130219;1258;114774;-65
2023/02/02 08:11:42;;;;;;;9.40;2.00;;;;;;;4.26;78.84;99609.79;130212;1253;114718;-61
2023/02/02 08:14:46;;;;;;;8.80;2.10;;;;;;;4.33;79.00;99618.02;130404;1257;114855;-60
2023/02/02 08:17:48;;;;;;;7.50;2.20;;;;;;;4.45;79.10;99624.33;130342;1254;115241;-67
2023/02/02 08:20:51;;;;;;;6.50;2.10;;;;;;;4.55;78.91;99630.49;130316;1255;114840;-60
2023/02/02 08:23:58;;;;;;;9.20;2.20;;;;;;;4.60;78.62;99641.50;130291;1256;115072;-60
2023/02/02 08:27:03;;;;;;;5.90;1.70;;;;;;;4.59;78.53;99647.36;130259;1274;115373;-61
2023/02/02 08:30:06;;;;;;;10.20;3.10;;;;;;;4.56;78.48;99661.42;130280;1251;115073;-68
2023/02/02 08:33:09;;;;;;;7.80;1.80;;;;;;;4.51;78.67;99670.63;130272;1257;114735;-59
2023/02/02 08:36:19;;;;;;;5.30;2.60;;;;;;;4.49;78.57;99664.34;130332;1257;114811;-60
2023/02/02 08:39:23;;;;;;;8.50;2.40;;;;;;;4.44;78.74;99670.52;130281;1254;114696;-59
2023/02/02 08:42:25;;;;;;;9.70;2.40;;;;;;;4.42;78.75;99684.02;130189;1261;114822;-59
2023/02/02 08:45:29;;;;;;;3.60;1.60;;;;;;;4.41;78.67;99692.70;130170;1265;114817;-59
2023/02/02 08:48:32;;;;;;;5.60;1.30;;;;;;;4.45;79.02;99693.46;130166;1257;114846;-59
2023/02/02 08:51:34;;;;;;;8.00;2.30;;;;;;;4.51;79.15;99692.36;130145;1256;115064;-68
2023/02/02 08:54:39;;;;;;;9.40;1.90;;;;;;;4.56;79.18;99694.83;130276;1257;114721;-62
2023/02/02 08:57:41;;;;;;;6.30;1.70;;;;;;;4.67;79.07;99700.48;130312;1265;115061;-59
2023/02/02 09:00:44;;;;;;;11.30;2.50;;;;;;;4.79;78.92;99706.80;130197;1264;114735;-65
2023/02/02 09:03:47;;;;;;;6.60;1.60;;;;;;;4.92;78.83;99708.10;130264;1257;116302;-65
2023/02/02 09:06:49;;;;;;;6.60;2.90;;;;;;;5.05;78.93;99719.14;130182;1275;115277;-60
2023/02/02 09:09:54;;;;;;;7.60;2.60;;;;;;;5.15;78.48;99725.31;130204;1257;114737;-60
2023/02/02 09:12:56;;;;;;;5.60;1.80;;;;;;;5.24;78.34;99732.09;130147;1256;115367;-62
2023/02/02 09:16:04;;;;;;;6.00;1.80;;;;;;;5.31;78.25;99737.83;130350;1257;115299;-62
2023/02/02 09:19:09;;;;;;;8.10;2.00;;;;;;;5.41;77.92;99745.45;130247;1269;128176;-64
2023/02/02 09:22:11;;;;;;;8.00;2.40;;;;;;;5.45;77.45;99750.44;130169;1257;114778;-69
2023/02/02 09:25:14;;;;;;;6.40;2.20;;;;;;;5.46;77.22;99757.11;130410;1257;114686;-60
2023/02/02 09:28:17;;;;;;;7.70;1.90;;;;;;;5.44;76.92;99769.95;130429;1254;116491;-66
2023/02/02 09:31:21;;;;;;;8.10;2.10;;;;;;;5.39;76.55;99765.88;130093;1254;232852;-59
2023/02/02 09:34:24;;;;;;;8.00;1.90;;;;;;;5.36;76.52;99781.77;130293;1257;114689;-60
2023/02/02 09:37:27;;;;;;;4.90;1.50;;;;;;;5.36;76.56;99786.73;130227;1256;114765;-60
2023/02/02 09:40:31;;;;;;;13.20;3.20;;;;;;;5.38;76.71;99790.55;130271;1257;115198;-63
2023/02/02 09:43:51;;;;;;;6.70;2.50;;;;;;;5.40;76.60;99796.81;130245;1264;114692;-60
2023/02/02 09:47:20;;;;;;;7.10;2.80;;;;;;;5.44;76.54;99796.88;129940;1254;115321;-62
2023/02/02 09:50:49;;;;;;;7.10;2.50;;;;;;;5.50;76.45;99798.60;130323;1275;128971;-60
2023/02/02 09:53:57;;;;;;;4.20;1.70;;;;;;;5.57;76.47;99796.75;130094;1275;115157;-65
2023/02/02 09:57:03;;;;;;;5.40;1.90;;;;;;;5.63;76.44;99791.73;130138;1251;114929;-63
2023/02/02 10:00:35;;;;;;;7.80;1.90;;;;;;;5.66;75.94;99796.59;130042;1259;114872;-64
2023/02/02 10:03:44;;;;;;;6.10;1.70;;;;;;;5.63;75.61;99798.85;130063;1258;114781;-66
2023/02/02 10:06:52;;;;;;;4.60;1.60;;;;;;;5.59;75.54;99796.86;129861;1257;128474;-59
2023/02/02 10:10:00;;;;;;;6.40;1.90;;;;;;;5.62;75.68;99805.26;130184;1254;116400;-60
2023/02/02 10:13:07;;;;;;;7.00;3.00;;;;;;;5.66;75.59;99805.46;129914;1259;114901;-60
2023/02/02 10:16:16;;;;;;;5.70;1.80;;;;;;;5.70;75.60;99814.18;130058;1257;114773;-60
2023/02/02 10:19:19;;;;;;;9.70;2.50;;;;;;;5.77;75.39;99814.44;130274;1257;114702;-65
2023/02/02 10:22:26;;;;;;;5.20;2.10;;;;;;;5.82;75.33;99819.77;130085;1267;127615;-63
2023/02/02 10:25:29;;;;;;;8.50;2.90;;;;;;;5.80;75.29;99823.91;130327;1258;115199;-62
2023/02/02 10:28:56;;;;;;;12.70;2.60;;;;;;;5.80;75.41;99820.69;130349;1254;115195;-62
2023/02/02 10:32:05;;;;;;;11.90;3.80;;;;;;;5.89;75.57;99822.86;130304;1253;114661;-65
2023/02/02 10:35:38;;;;;;;11.10;4.40;;;;;;;5.95;75.44;99828.30;130218;1257;115250;-67
2023/02/02 10:38:49;;;;;;;8.80;3.60;;;;;;;6.05;75.39;99831.50;130074;1257;127870;-68
2023/02/02 10:42:10;;;;;;;11.20;3.20;;;;;;;6.19;75.44;99827.40;129874;1260;115148;-67
2023/02/02 10:45:20;;;;;;;9.30;4.00;;;;;;;6.29;75.14;99824.36;130307;1258;115039;-63
2023/02/02 10:48:29;;;;;;;8.10;2.90;;;;;;;6.35;74.63;99827.48;130300;1257;114706;-60
2023/02/02 10:51:31;;;;;;;7.60;2.60;;;;;;;6.40;74.24;99827.13;130330;1256;114773;-61
2023/02/02 10:55:05;;;;;;;7.60;3.00;;;;;;;6.41;74.21;99840.92;130323;1275;114730;-66
2023/02/02 10:58:11;;;;;;;11.10;3.30;;;;;;;6.45;74.39;99852.09;129678;1260;116431;-60
2023/02/02 11:01:16;;;;;;;17.00;3.70;;;;;;;6.49;74.08;99861.52;129574;1268;114907;-66
2023/02/02 11:07:42;;;;;;;5.90;2.30;;;;;;;6.49;73.20;99863.14;129214;1267;114767;-61
2023/02/02 11:10:47;;;;;;;11.00;3.50;;;;;;;6.52;73.41;99865.86;129531;1260;114836;-61
2023/02/02 11:14:08;;;;;;;7.00;2.10;;;;;;;6.56;73.22;99870.46;129595;1264;114907;-70
2023/02/02 11:17:26;;;;;;;9.30;2.90;;;;;;;6.60;72.90;99868.73;129469;1265;115240;-60
2023/02/02 11:20:34;;;;;;;7.60;2.90;;;;;;;6.65;72.83;99873.11;129446;1263;114797;-60
2023/02/02 11:23:36;;;;;;;6.10;2.40;;;;;;;6.77;73.00;99873.73;129509;1265;114806;-60
2023/02/02 11:26:48;;;;;;;10.60;3.20;;;;;;;6.88;72.81;99874.67;129639;1267;114965;-62
2023/02/02 11:29:53;;;;;;;7.00;2.90;;;;;;;6.96;72.45;99882.86;129460;1281;115187;-60
2023/02/02 11:32:56;;;;;;;9.40;2.50;;;;;;;7.02;71.83;99886.18;129370;1264;114983;-60
2023/02/02 11:36:05;;;;;;;6.40;2.30;;;;;;;7.07;71.99;99887.95;129825;1254;114770;-60
2023/02/02 11:39:26;;;;;;;6.60;2.30;;;;;;;7.11;71.54;99887.77;129999;1275;115125;-60
2023/02/02 11:42:29;;;;;;;4.40;1.80;;;;;;;7.17;71.56;99890.89;129976;1254;127879;-67
2023/02/02 11:45:38;;;;;;;7.50;2.20;;;;;;;7.26;71.74;99896.89;130029;1260;114842;-64
2023/02/02 11:48:52;;;;;;;6.90;2.20;;;;;;;7.39;71.59;99897.06;129952;1254;114929;-60
2023/02/02 11:51:59;;;;;;;5.20;2.50;;;;;;;7.50;71.33;99903.91;129850;1258;114705;-60
2023/02/02 11:55:08;;;;;;;5.90;1.40;;;;;;;7.52;71.02;99907.73;129982;1260;114740;-60
2023/02/02 11:58:26;;;;;;;8.00;2.80;;;;;;;7.42;70.38;99918.09;129825;1263;127785;-60
2023/02/02 12:01:31;;;;;;;7.40;2.70;;;;;;;7.24;70.36;99923.47;129701;1254;115297;-60
2023/02/02 12:04:34;;;;;;;6.10;3.50;;;;;;;7.11;70.61;99924.52;129783;1260;114872;-60
2023/02/02 12:07:37;;;;;;;8.90;2.20;;;;;;;7.09;70.86;99926.23;130224;1257;114759;-60
2023/02/02 12:11:02;;;;;;;9.40;2.20;;;;;;;7.05;70.63;99934.89;130253;1258;114677;-60
2023/02/02 12:14:40;;;;;;;10.20;2.50;;;;;;;6.95;69.85;99943.47;130229;1257;127741;-60
2023/02/02 12:17:46;;;;;;;10.60;2.60;;;;;;;6.82;69.81;99953.05;129952;1275;115211;-60
2023/02/02 12:21:00;;;;;;;8.10;2.20;;;;;;;6.72;69.69;99956.98;129782;1260;114908;-65
2023/02/02 12:24:25;;;;;;;10.40;2.40;;;;;;;6.58;69.79;99967.81;130247;1265;114632;-62
2023/02/02 12:27:42;;;;;;;9.60;2.40;;;;;;;6.41;69.44;99971.98;129785;1260;114753;-65
2023/02/02 12:30:48;;;;;;;5.90;2.90;;;;;;;6.24;69.66;99980.42;130389;1274;127999;-66
2023/02/02 12:34:03;;;;;;;10.40;3.20;;;;;;;6.08;70.37;99983.69;130219;1256;115236;-62
2023/02/02 12:37:20;;;;;;;9.80;3.10;;;;;;;5.98;70.87;99981.88;130322;1257;115532;-63
2023/02/02 12:40:33;;;;;;;13.30;3.80;;;;;;;5.93;71.42;99981.67;130330;1257;114773;-65
2023/02/02 12:43:44;;;;;;;12.30;3.80;;;;;;;5.93;71.91;99986.11;130249;1257;114698;-60
2023/02/02 12:47:12;;;;;;;11.40;4.30;;;;;;;5.94;72.32;99993.36;130077;1251;128059;-60
2023/02/02 12:50:26;;;;;;;10.90;3.40;;;;;;;5.91;72.41;100003.37;130086;1254;115183;-67
2023/02/02 12:53:59;;;;;;;10.60;3.50;;;;;;;5.85;72.51;100008.20;130155;1252;114763;-59
2023/02/02 12:57:20;;;;;;;13.40;4.10;;;;;;;5.79;72.68;100012.30;130303;1251;114701;-59
2023/02/02 13:00:41;;;;;;;15.40;4.30;;;;;;;5.70;72.74;100019.68;130220;1257;114853;-60
2023/02/02 13:04:12;;;;;;;11.10;4.10;;;;;;;5.61;73.09;100022.82;129949;1275;127869;-60
2023/02/02 13:07:30;;;;;;;11.30;3.40;;;;;;;5.53;73.32;100027.16;130282;1253;115220;-59
2023/02/02 13:10:39;;;;;;;11.20;3.90;;;;;;;5.46;73.30;100034.29;130256;1251;115312;-60
2023/02/02 13:13:41;;;;;;;7.70;2.50;;;;;;;5.36;73.38;100027.88;130275;1257;114775;-59
2023/02/02 13:16:49;;;;;;;7.20;2.60;;;;;;;5.24;73.38;100030.05;129882;1261;114707;-62
2023/02/02 13:20:03;;;;;;;6.40;2.40;;;;;;;5.14;73.65;100040.82;130046;1263;127764;-59
2023/02/02 13:23:22;;;;;;;9.30;2.80;;;;;;;5.03;73.96;100051.41;130164;1273;114712;-61
2023/02/02 13:26:34;;;;;;;8.40;2.70;;;;;;;4.83;73.87;100061.38;130214;1254;115045;-67
2023/02/02 13:29:45;;;;;;;5.60;2.10;;;;;;;4.56;73.93;100074.91;129973;1257;115122;-59
2023/02/02 13:32:48;;;;;;;9.50;4.60;;;;;;;4.38;74.14;100072.39;130195;1251;114751;-60
2023/02/02 13:35:54;;;;;;;8.30;3.20;;;;;;;4.34;74.90;100080.80;130233;1252;114764;-66
2023/02/02 13:38:59;;;;;;;8.50;3.40;;;;;;;4.28;75.05;100093.90;130228;1256;115144;-59
2023/02/02 13:42:04;;;;;;;8.70;3.30;;;;;;;4.17;75.09;100100.55;130199;1254;114794;-60
2023/02/02 13:45:35;;;;;;;10.50;2.70;;;;;;;4.08;75.22;100107.84;130315;1275;114821;-60
2023/02/02 13:48:59;;;;;;;8.40;3.50;;;;;;;3.96;75.25;100118.75;130034;1259;114750;-61
2023/02/02 13:52:08;;;;;;;9.00;2.90;;;;;;;3.86;75.55;100122.70;129958;1275;128210;-60
2023/02/02 13:55:29;;;;;;;23.90;9.80;;;;;;;3.75;75.60;100125.45;130285;1257;115186;-60
2023/02/02 13:59:03;;;;;;;9.20;3.30;;;;;;;3.66;75.76;100126.53;130244;1252;114778;-60
2023/02/02 14:02:21;;;;;;;8.70;2.90;;;;;;;3.57;75.95;100123.41;130191;1256;114671;-60
2023/02/02 14:05:25;;;;;;;8.70;4.10;;;;;;;3.52;76.03;100124.77;130194;1255;114712;-60
2023/02/02 14:08:28;;;;;;;13.00;4.00;;;;;;;3.49;76.30;100131.88;130072;1254;114839;-60
2023/02/02 14:11:34;;;;;;;12.00;5.10;;;;;;;3.51;76.58;100133.79;130059;1257;114785;-60
2023/02/02 14:14:38;;;;;;;13.80;4.30;;;;;;;3.54;76.85;100131.78;129827;1260;114797;-64
2023/02/02 14:17:40;;;;;;;9.20;4.10;;;;;;;3.56;76.96;100138.44;130075;1254;114734;-59
2023/02/02 14:20:47;;;;;;;13.90;4.70;;;;;;;3.56;76.97;100142.50;130145;1257;114775;-59
2023/02/02 14:23:54;;;;;;;10.90;4.80;;;;;;;3.56;77.19;100145.85;130213;1255;128891;-59
2023/02/02 14:26:58;;;;;;;17.70;5.00;;;;;;;3.56;77.26;100161.89;130234;1256;115230;-63
2023/02/02 14:30:18;;;;;;;17.90;4.80;;;;;;;3.55;77.27;100164.95;129973;1265;114976;-61
2023/02/02 14:33:21;;;;;;;16.60;6.10;;;;;;;3.51;77.16;100168.39;130156;1267;115096;-61